Tiempo atmosférico en la estación meteorológica de Bilbao Aeropuerto, Bizkaia (42 m.)



Fecha
DESCASC
Temp. máxima en grados centígrados (hora)
DESCASC
Temp. mínima en grados centígrados (hora)
DESCASC
Temp. media en grados centígrados
DESCASC
Racha de viento máxima en m/sg (hora)
DESCASC
Velocidad máxima media en intervalos de 10 minutos(hora)
DESCASC
Precipitaciones diarias en mm
DESCASC
Precipitaciones de 00:00 a 06:00 en mm
DESCASC
Precipitaciones de 06:00 a 12:00 en mm
DESCASC
Precipitaciones de 12:00 a 18:00 en mm
DESCASC
Precipitaciones de 18:00 a 24:00 en mm
DESCASC
16-01-2020 19.9 (19:30) 12.4 (06:20) 16.1 21.67 (19:30) 9.17 (21:20) -- 0 0 -- 0.1
15-01-2020 18 (14:10) 7.5 (21:30) 12.8 22.22 (04:20) 12.22 (04:20) 0 0 0 0 0
14-01-2020 17 (14:30) 11.3 (03:00) 14.2 18.89 (20:20) 10.56 (15:50) 0 0 0 0 0
13-01-2020 16.4 (16:10) 2.6 (03:40) 9.5 16.94 (22:50) 8.89 (22:50) 0 0 0 0 0
12-01-2020 14.8 (16:20) 0.1 (00:00) 7.5 5 (13:30) 3.33 (03:50) 0 0 0 0 0
11-01-2020 14.1 (15:00) 3.1 (00:00) 8.6 6.11 (14:50) 3.06 (15:40) 1.2 0.8 0.4 0 0
10-01-2020 12.5 (15:00) 6.3 (00:00) 9.4 20 (01:30) 9.17 (01:40) 8.4 0.8 1.4 6.2 0
09-01-2020 19 (16:10) 7.9 (00:00) 13.5 24.17 (16:30) 16.39 (16:30) 7.5 0 0 7.4 0.1
08-01-2020 -- (--) -- (--) -- -- (--) -- (--) -- 0 0 -- --
07-01-2020 18 (16:40) 4 (00:00) 11 5 (08:50) 3.61 (08:50) 0 0 0 0 0
06-01-2020 13.7 (14:10) 0.1 (00:00) 6.9 6.11 (15:10) 4.17 (15:10) 0 0 0 0 0
05-01-2020 14.2 (15:40) 2.8 (00:00) 8.5 5 (13:10) 3.33 (12:30) 0 0 0 0 0
04-01-2020 -- (--) -- (--) -- -- (--) -- (--) -- 1.1 -- 0 0
03-01-2020 10.4 (15:40) 3.1 (00:00) 6.7 5 (11:50) 3.33 (09:40) 0.1 0 0 0 0.1
02-01-2020 15.4 (13:40) 1.4 (00:00) 8.4 5 (04:30) 3.89 (05:50) 0 0 0 0 0
01-01-2020 14.8 (15:30) 3.4 (00:00) 9.1 4.72 (06:20) 3.33 (06:20) 0 0 0 0 0
31-12-2019 14.4 (15:50) 0.3 (00:00) 7.3 4.72 (05:00) 3.61 (05:00) 0 0 0 0 0
30-12-2019 15.6 (14:30) 1.4 (00:00) 8.5 6.11 (13:50) 4.17 (15:10) 0 0 0 0 0
29-12-2019 17.2 (15:00) 2.3 (00:00) 9.8 4.72 (00:20) 3.33 (00:20) 0 0 0 0 0
28-12-2019 17.2 (15:50) 1.8 (00:00) 9.5 5 (07:50) 3.33 (07:50) 0 0 0 0 0
27-12-2019 15.5 (16:00) 1.9 (00:00) 8.7 6.67 (14:40) 3.89 (17:10) 0 0 0 0 0
26-12-2019 19.4 (02:00) 5.1 (00:00) 12.2 15 (02:50) 10.56 (03:20) 0 0 0 0 0
25-12-2019 22.7 (14:40) 7.2 (00:00) 15 10.28 (22:40) 5.56 (13:20) 0 0 0 0 0
24-12-2019 20.1 (16:10) 8.9 (00:00) 14.5 7.22 (14:00) 4.72 (04:40) 0 0 0 0 0
23-12-2019 16.4 (16:20) 7.6 (00:00) 12 8.89 (01:10) 4.44 (23:00) 0 0 0 0 0
22-12-2019 17.3 (13:30) 10.6 (00:00) 13.9 24.72 (01:50) 17.22 (01:40) 10 4.8 0 3.3 1.9
21-12-2019 22.8 (14:00) 7.1 (00:00) 14.9 20 (14:50) 14.17 (14:50) 4.7 0 0 4 0.7
20-12-2019 17.6 (00:30) 8.9 (00:00) 13.3 22.22 (00:10) 13.06 (03:40) 20 13.5 3.2 2 1.3
19-12-2019 19.7 (17:50) 14.2 (05:40) 17 26.39 (23:40) 13.61 (23:30) 0.8 0 0 0 0.8

Gráficas

Temp. máximas Temp. mínimas Temp. medias Precipitaciones Rachas de viento máximas Velocidades máximas media en intervalos de 10 minutos

Datos horarios

Fecha y hora oficial Temperatura (ºC) Velocidad del viento (km/h) Dirección del viento Racha (km/h) Dirección de racha Precipitación (mm) Presión (hPa) Tendencia (hPa) Humedad (%)
2020-01-17 23:00:00 7.1 5 Este 11 Sudeste 0 1028.1 -0.5 86
2020-01-17 22:00:00 7.1 9 Este 17 Este 0 1028.6 0.4 85
2020-01-17 21:00:00 7.6 12 Este 18 Este 0 1028.6 1 83
2020-01-17 20:00:00 8.1 6 Sudeste 17 Oeste 0 1028.6 1.5 78
2020-01-17 19:00:00 9.5 6 Oeste 22 Oeste 0 1028.2 2.1 70
2020-01-17 18:00:00 10.5 18 Noroeste 30 Noroeste 0 1027.6 1.8 68
2020-01-17 17:00:00 11.2 18 Noroeste 32 Noroeste 0 1027.1 1.5 69
2020-01-17 16:00:00 11.6 22 Noroeste 39 Noroeste 0 1026.1 0.5 67
2020-01-17 15:00:00 12.8 24 Oeste 33 Oeste 0 1025.8 0.4 63
2020-01-17 14:00:00 11.5 8 Oeste 21 Noroeste 0 1025.6 1 69
2020-01-17 13:00:00 10.8 15 Oeste 28 Oeste 0 1025.6 1.7 76
2020-01-17 12:00:00 11.6 14 Oeste 26 Oeste 0 1025.4 2.7 73
2020-01-17 11:00:00 10.1 9 Oeste 22 Oeste 0.6 1024.6 2.7 78
2020-01-17 10:00:00 10 11 Sudoeste 21 Oeste 0.2 1023.9 3.6 81
2020-01-17 09:00:00 9.8 4 Oeste 24 Oeste 0.1 1022.7 4.4 81
2020-01-17 08:00:00 9.9 7 Sudoeste 54 Oeste 2.4 1021.9 3.8 88
2020-01-17 07:00:00 11.3 30 Noroeste 46 Noroeste 0 1020.3 2.2 78
2020-01-17 06:00:00 10.8 5 Nordeste 11 Este 0 1018.3 0.7 84
2020-01-17 05:00:00 10.5 6 Nordeste 11 Oeste 0 1018.1 1.8 82
2020-01-17 04:00:00 13 8 Sudoeste 32 Sudoeste 0 1018.1 2.8 76
2020-01-17 03:00:00 15.7 19 Sudoeste 39 Oeste 0 1017.6 1.4 47
2020-01-17 02:00:00 15.9 14 Sur 58 Sudoeste 0 1016.3 0.7 45
2020-01-17 01:00:00 16.3 17 Sur 54 Sudoeste 0 1015.3 -0.5 47
2020-01-17 00:00:00 16.6 13 Sudoeste 52 Sur 0 1016.2 1.3 44
2020-01-16 23:00:00 17.4 16 Sudoeste 46 Oeste 0 1015.6 1.6 36
2020-01-16 22:00:00 17.8 18 Oeste 67 Sudoeste 0 1015.8 1.9 33
2020-01-16 21:00:00 18.6 13 Sur 55 Sudeste 0 1014.9 1.4 35
2020-01-16 20:00:00 19.6 19 Sur 78 Sudoeste 0 1014 0.3 28
2020-01-16 19:00:00 19.6 21 Sur 68 Sudoeste 0.1 1013.9 0.4 29
2020-01-16 18:00:00 18.5 8 Sudeste 42 Sur 0 1013.5 -0.7 39
2020-01-16 17:00:00 18.4 18 Sur 48 Sudeste 0 1013.7 -1.2 41
2020-01-16 16:00:00 18.2 28 Sur 48 Sur 0 1013.5 -2.3 45
2020-01-16 15:00:00 17.4 18 Sur 42 Sudeste 0 1014.2 -2.7 49
2020-01-16 14:00:00 18.1 18 Sur 45 Sur -- 1014.9 -1.9 48
2020-01-16 13:00:00 18.7 21 Sur 48 Sur -- 1015.8 -0.5 46
2020-01-16 12:00:00 17.3 24 Sur 42 Sur 0 1016.9 0.5 50
2020-01-16 11:00:00 17.3 25 Sur 42 Sudeste 0 1016.8 0.5 50
2020-01-16 10:00:00 15.9 23 Sudeste 46 Sudeste 0 1016.3 0.7 53
2020-01-16 09:00:00 15.3 20 Sudeste 48 Sudeste 0 1016.4 0.5 54
2020-01-16 08:00:00 15.3 21 Sur 42 Sudeste 0 1016.3 0.1 54
2020-01-16 07:00:00 15.6 29 Sudeste 48 Sudeste 0 1015.6 -0.8 55
2020-01-16 06:00:00 13.2 17 Sudeste 35 Sudeste 0 1015.9 -0.6 64
2020-01-16 05:00:00 15.4 17 Sudeste 42 Sur 0 1016.2 -0.4 58
2020-01-16 04:00:00 15.4 22 Sur 42 Sudeste 0 1016.4 -0.6 58
2020-01-16 03:00:00 15.4 12 Sur 39 Sudeste 0 1016.5 -1 57
2020-01-16 02:00:00 15.1 22 Sur 35 Sur 0 1016.6 -1 57
2020-01-16 01:00:00 15.2 12 Sur 30 Sudoeste 0 1017 -1 54
2020-01-16 00:00:00 14.7 14 Sur 30 Sudeste 0 1017.5 -1.1 55
2020-01-15 23:00:00 14.4 18 Sudeste 32 Sudeste 0 1017.6 -1.7 57
2020-01-15 22:00:00 9.7 21 Este 28 Este 0 1018 -0.7 88
2020-01-15 21:00:00 8.3 13 Este 17 Este 0 1018.6 0.4 94
2020-01-15 20:00:00 9.3 6 Sudeste 9 Este 0 1019.3 1.9 90
2020-01-15 19:00:00 11.2 0 Calma 13 Norte 0 1018.7 2.5 85
2020-01-15 18:00:00 12.9 7 Norte 13 Norte 0 1018.2 2.9 79
2020-01-15 17:00:00 14 7 Oeste 26 Oeste 0 1017.4 2.3 75
2020-01-15 16:00:00 15.4 19 Oeste 39 Oeste 0 1016.2 1.8 70
2020-01-15 15:00:00 17.6 14 Sudoeste 42 Sudoeste 0 1015.3 -0.3 47
2020-01-15 14:00:00 17.5 21 Sudoeste 39 Sudoeste 0 1015.1 1.4 46
2020-01-15 13:00:00 16.6 16 Sudoeste 33 Oeste 0 1014.4 2.8 48
2020-01-15 12:00:00 16.1 10 Oeste 32 Sudeste 0 1015.6 4.5 50
2020-01-15 11:00:00 16.5 21 Sudoeste 52 Sudoeste 0 1013.7 3.3 47
2020-01-15 10:00:00 16.5 24 Sur 58 Oeste 0 1011.6 1.6 46
2020-01-15 09:00:00 16 11 Sur 55 Sur 0 1011.1 2 46
2020-01-15 08:00:00 16 26 Sur 74 Sur 0 1010.4 1.5 46
2020-01-15 07:00:00 15.5 14 Sudeste 41 Sur 0 1010 1.1 50
2020-01-15 06:00:00 16 15 Sur 61 Sudoeste 0 1009.1 -0.4 47
2020-01-15 05:00:00 15.9 33 Sur 80 Sudoeste 0 1008.9 -0.8 48
2020-01-15 04:00:00 16 28 Sur 74 Sur 0 1008.9 -1.8 49
2020-01-15 03:00:00 15.7 27 Sur 52 Sur 0 1009.5 -1.6 49
2020-01-15 02:00:00 15.9 22 Sur 55 Sudoeste 0 1009.7 -0.9 47
2020-01-15 01:00:00 15.7 16 Sur 50 Sur 0 1010.7 0.1 47
2020-01-15 00:00:00 15.5 16 Sudoeste 33 Sur 0 1011.1 0.6 44
2020-01-14 23:00:00 15.8 14 Sur 50 Sudoeste 0 1010.6 0.1 42
2020-01-14 22:00:00 16 16 Sur 52 Sur 0 1010.6 0.3 41
2020-01-14 21:00:00 16.1 24 Sur 68 Sudoeste 0 1010.5 0.5 39
2020-01-14 20:00:00 15.7 19 Sudoeste 52 Sudoeste 0 1010.5 0.4 40
2020-01-14 19:00:00 15.9 19 Sur 61 Sudoeste 0 1010.3 0.3 39
2020-01-14 18:00:00 16.2 31 Sur 61 Sur 0 1010 -0.4 39
2020-01-14 17:00:00 15.9 23 Sur 63 Sur 0 1010.1 -0.4 40
2020-01-14 16:00:00 16.7 25 Sur 59 Sur 0 1010 -1 38
2020-01-14 15:00:00 16.6 15 Sudoeste 48 Sur 0 1010.4 -1.5 39
2020-01-14 14:00:00 16.6 22 Sur 61 Oeste 0 1010.5 -1.3 39
2020-01-14 13:00:00 15 19 Sur 41 Sur 0 1011 -0.5 44
2020-01-14 12:00:00 14.1 19 Sur 42 Sur 0 1011.9 0.8 49
2020-01-14 11:00:00 14.1 14 Sur 42 Sudoeste 0 1011.8 0.7 50
2020-01-14 10:00:00 12.6 14 Sur 39 Sur 0 1011.5 0.9 53
2020-01-14 09:00:00 12.3 9 Sur 28 Sur 0 1011.1 0.5 54
2020-01-14 08:00:00 12.1 10 Sudeste 41 Oeste 0 1011.1 0.2 54
2020-01-14 07:00:00 12.2 14 Este 26 Sudeste 0 1010.6 -0.9 54
2020-01-14 06:00:00 12.3 9 Sur 33 Sur 0 1010.6 -1.5 52
2020-01-14 05:00:00 12.3 14 Sur 35 Sudeste 0 1010.9 -1.1 51
2020-01-14 04:00:00 12.3 12 Sur 42 Sur 0 1011.5 -0.7 49
2020-01-14 03:00:00 11.4 5 Este 55 Sudoeste 0 1012.1 -0.5 50
2020-01-14 02:00:00 12.5 34 Sudoeste 63 Sudoeste 0 1012 -1.4 45
2020-01-14 01:00:00 12.5 16 Sudoeste 46 Sudoeste 0 1012.2 -1 42
2020-01-14 00:00:00 12.5 27 Sudoeste 50 Sudoeste 0 1012.6 -0.3 41
2020-01-13 23:00:00 12 26 Sur 61 Sudoeste 0 1013.4 0.9 38
2020-01-13 22:00:00 12.5 17 Sudoeste 45 Sudoeste 0 1013.2 0.6 31
2020-01-13 21:00:00 11.7 11 Sudoeste 22 Sur 0 1012.9 0.1 30
2020-01-13 20:00:00 12.9 9 Sur 26 Sur 0 1012.5 -0.5 29
2020-01-13 19:00:00 13.3 8 Sur 37 Sudoeste 0 1012.6 -0.6 30
2020-01-13 18:00:00 13.2 12 Sudeste 30 Sur 0 1012.8 -1.1 31
2020-01-13 17:00:00 14.7 5 Sudeste 32 Sur 0 1013 -1.9 26
2020-01-13 16:00:00 16.2 8 Sur 33 Sudoeste 0 1013.2 -2.7 28
2020-01-13 15:00:00 15.1 6 Sudoeste 26 Sur 0 1013.9 -3.5 32
2020-01-13 14:00:00 14.3 13 Sur 24 Sudoeste 0 1014.9 -3 36
2020-01-13 13:00:00 13.1 5 Sur 22 Sur 0 1015.9 -2.1 43
2020-01-13 12:00:00 11.1 4 Norte 11 Norte 0 1017.4 -0.6 59
2020-01-13 11:00:00 8.5 0 Calma 11 Sudeste 0 1017.9 -0.8 71
2020-01-13 10:00:00 5.7 3 Sudeste 8 Este 0 1018 -1 79
2020-01-13 09:00:00 4.4 5 Este 9 Este 0 1018 -1.2 85
2020-01-13 08:00:00 4.8 5 Este 11 Sudeste 0 1018.7 -1.6 83
2020-01-13 07:00:00 2.8 8 Sudeste 11 Sudeste 0 1019 -2.3 90
2020-01-13 06:00:00 3.9 3 Noroeste 11 Sudeste 0 1019.2 -2.8 89
2020-01-13 05:00:00 3.4 4 Este 11 Sudeste 0 1020.3 -2.3 92
2020-01-13 04:00:00 3.2 5 Este 13 Este 0 1021.3 -2.3 92
2020-01-13 03:00:00 3.5 6 Nordeste 11 Este 0 1022 -2 91
2020-01-13 02:00:00 3.6 6 Este 11 Este 0 1022.6 -1.7 91
2020-01-13 01:00:00 3.9 6 Nordeste 9 Este 0 1023.6 -1.2 90
2020-01-13 00:00:00 4.1 5 Este 13 Este 0 1024 -1.2 91
2020-01-12 23:00:00 3.9 10 Este 11 Este 0 1024.3 -1.3 92
2020-01-12 22:00:00 4.7 9 Este 18 Este 0 1024.8 -0.6 89
2020-01-12 21:00:00 5.3 10 Este 15 Nordeste 0 1025.2 0 87
2020-01-12 20:00:00 6.4 6 Este 11 Nordeste 0 1025.6 0.5 82
2020-01-12 19:00:00 7.6 5 Este 13 Este 0 1025.4 0.2 78
2020-01-12 18:00:00 9.8 7 Este 9 Sudeste 0 1025.2 -0.4 65
2020-01-12 17:00:00 13.8 6 Este 8 Sudeste 0 1025.1 -1.1 55
2020-01-12 16:00:00 14.1 2 Este 9 Nordeste 0 1025.2 -2.2 47
2020-01-12 15:00:00 13.9 6 Sudeste 9 Sudeste 0 1025.6 -2.7 54
2020-01-12 14:00:00 12.6 5 Este 18 Este 0 1026.2 -2.4 57
2020-01-12 13:00:00 10.4 5 Este 11 Nordeste 0 1027.4 -0.9 66
2020-01-12 12:00:00 7.9 9 Sudeste 15 Este 0 1028.3 0.5 75
2020-01-12 11:00:00 4.8 8 Este 13 Este 0 1028.6 0.9 85
2020-01-12 10:00:00 1.6 9 Este 13 Este 0 1028.3 0.8 94
2020-01-12 09:00:00 0.2 9 Este 15 Este 0 1027.8 0.7 96
2020-01-12 08:00:00 0.2 11 Este 13 Este 0 1027.7 0.6 96
2020-01-12 07:00:00 0.7 9 Este 13 Este 0 1027.5 0.4 96
2020-01-12 06:00:00 0.6 9 Este 11 Este 0 1027.1 0.2 96
2020-01-12 05:00:00 0.8 10 Este 13 Este 0 1027.1 0.3 96
2020-01-12 04:00:00 1.5 12 Este 15 Este 0 1027.1 0.3 96
2020-01-12 03:00:00 1.7 9 Este 13 Este 0 1026.9 -0.1 96
2020-01-12 02:00:00 2.2 10 Este 13 Este 0 1026.8 0 96
2020-01-12 01:00:00 2.7 10 Este 15 Este 0 1026.8 0.1 96
2020-01-12 00:00:00 3.2 10 Este 11 Este 0 1027 0.3 95
2020-01-11 23:00:00 3.8 10 Este 13 Este 0 1026.8 0.1 94
2020-01-11 22:00:00 4.7 6 Este 9 Este 0 1026.7 0.4 91
2020-01-11 21:00:00 6.2 5 Este 11 Este 0 1026.7 0.8 90
2020-01-11 20:00:00 7 5 Este 11 Este 0 1026.7 1.1 88
2020-01-11 19:00:00 8.6 8 Este 13 Este 0 1026.3 0.7 83
2020-01-11 18:00:00 10.5 9 Este 11 Este 0 1025.9 -0.1 73
2020-01-11 17:00:00 13.3 7 Sudeste 13 Este 0 1025.6 -1.2 64
2020-01-11 16:00:00 13.4 9 Este 17 Este 0 1025.6 -2.4 63
2020-01-11 15:00:00 13.9 6 Sudeste 22 Este 0 1026 -3.2 59
2020-01-11 14:00:00 13.8 7 Sudeste 17 Sur 0 1026.8 -2.9 60
2020-01-11 13:00:00 13 4 Este 11 Este 0 1028 -1.5 70
2020-01-11 12:00:00 10.7 9 Sudeste 15 Sudeste 0 1029.2 -0.4 80
2020-01-11 11:00:00 8.5 10 Sudeste 15 Sudeste 0 1029.7 0.1 88
2020-01-11 10:00:00 6.5 7 Sudeste 13 Sudeste 0 1029.5 -0.2 94
2020-01-11 09:00:00 5.9 5 Este 15 Este 0.1 1029.6 0.1 96
2020-01-11 08:00:00 6.2 8 Este 15 Este 0.3 1029.6 0.1 96
2020-01-11 07:00:00 6 9 Este 15 Sudeste 0 1029.7 -0.4 96
2020-01-11 06:00:00 5.8 9 Este 15 Sudeste 0 1029.5 -0.7 97
2020-01-11 05:00:00 5.8 9 Este 13 Este 0 1029.5 -0.5 97
2020-01-11 04:00:00 6.2 9 Este 13 Este 0.2 1030.1 -0.3 98
2020-01-11 03:00:00 6.5 9 Este 13 Este 0.5 1030.2 -0.1 98
2020-01-11 02:00:00 6.4 5 Este 9 Este 0.1 1030 -0.2 98
2020-01-11 01:00:00 6.4 9 Este 13 Este 0 1030.4 0.3 98
2020-01-11 00:00:00 6.3 8 Sudeste 17 Este 0 1030.3 0.5 97
2020-01-10 23:00:00 6.9 7 Este 13 Este 0 1030.2 0.5 96
2020-01-10 22:00:00 7.1 8 Este 13 Este 0 1030.1 1.1 94
2020-01-10 21:00:00 8.4 0 Calma 8 Nordeste 0 1029.8 1.4 89
2020-01-10 20:00:00 9.2 6 Sudeste 9 Sudeste 0 1029.7 1.5 88
2020-01-10 19:00:00 10 0 Calma 15 Norte 0 1029 1.5 83
2020-01-10 18:00:00 11.1 8 Norte 17 Norte 0 1028.4 1.4 74
2020-01-10 17:00:00 11.8 8 Noroeste 17 Noroeste 0 1028.2 1 72
2020-01-10 16:00:00 12.2 8 Noroeste 24 Noroeste 0 1027.5 0 73
2020-01-10 15:00:00 12.3 9 Noroeste 26 Noroeste 0 1027 -0.4 76
2020-01-10 14:00:00 10.6 9 Noroeste 28 Noroeste 2.9 1027.2 -0.1 89
2020-01-10 13:00:00 9.8 19 Norte 32 Norte 3.3 1027.5 1.1 88
2020-01-10 12:00:00 10.9 10 Oeste 32 Oeste 0.2 1027.4 1.6 83
2020-01-10 11:00:00 9.7 9 Noroeste 26 Oeste 0.8 1027.3 1.8 89
2020-01-10 10:00:00 9 9 Oeste 21 Oeste 0.2 1026.4 1.4 86
2020-01-10 09:00:00 9.1 11 Oeste 30 Noroeste 0.1 1025.8 1.8 83
2020-01-10 08:00:00 8.9 16 Oeste 24 Oeste 0.1 1025.5 1.7 79
2020-01-10 07:00:00 9.7 16 Oeste 26 Oeste 0 1025 1.2 75
2020-01-10 06:00:00 9.5 12 Oeste 30 Oeste 0.4 1024 0.5 78
2020-01-10 05:00:00 9.6 12 Oeste 26 Oeste 0.1 1023.8 1.1 74
2020-01-10 04:00:00 8.7 3 Noroeste 21 Oeste 0.3 1023.8 1.5 89
2020-01-10 03:00:00 9.7 18 Oeste 35 Oeste 0 1023.5 1.1 81
2020-01-10 02:00:00 10.2 20 Oeste 72 Noroeste 0 1022.7 0.8 75
2020-01-10 01:00:00 11.6 14 Oeste 42 Oeste 0 1022.3 0.9 62
2020-01-10 00:00:00 11.9 19 Oeste 35 Oeste 0 1022.4 1.9 59
2020-01-09 23:00:00 11.4 13 Oeste 32 Oeste 0 1021.9 1.5 65
2020-01-09 22:00:00 11.6 9 Oeste 17 Oeste 0 1021.4 1 74
2020-01-09 21:00:00 11.7 4 Oeste 30 Noroeste 0 1020.5 0.5 73
2020-01-09 20:00:00 11.8 11 Oeste 35 Noroeste 0.1 1020.4 0.7 73
2020-01-09 19:00:00 13.1 22 Oeste 39 Oeste 0 1020.4 5.2 62
2020-01-09 18:00:00 12.8 21 Oeste 54 Noroeste 0 1020 5.9 69
2020-01-09 17:00:00 12.5 41 Noroeste 87 Noroeste 7.4 1019.7 4.8 76
2020-01-09 16:00:00 18.6 11 Sudoeste 32 Sur 0 1015.2 -1.6 46
2020-01-09 15:00:00 18.3 11 Sur 37 Sur 0 1014.1 -4.1 44
2020-01-09 14:00:00 17.3 17 Sur 37 Sur 0 1014.9 -4.3 46
2020-01-09 13:00:00 15.5 19 Sur 39 Sur 0 1016.8 -2.2 48
2020-01-09 12:00:00 15.6 9 Sur 30 Sur 0 1018.2 -1.1 49
2020-01-09 11:00:00 14 9 Este 28 Este 0 1019.2 -0.2 56
2020-01-09 10:00:00 12.1 14 Este 41 Este 0 1019 -0.8 60
2020-01-09 09:00:00 11.6 11 Este 30 Este 0 1019.3 -0.4 60
2020-01-09 08:00:00 11.4 16 Este 41 Este 0 1019.4 -0.9 61
2020-01-09 07:00:00 11.4 5 Este 24 Este 0 1019.8 -0.8 62
2020-01-09 06:00:00 10.6 11 Este 22 Sudeste 0 1019.7 -1 68
2020-01-09 05:00:00 9 0 Calma 8 Sur 0 1020.3 -0.9 75
2020-01-09 04:00:00 10 4 Noroeste 18 Este 0 1020.6 -1.3 69
2020-01-09 03:00:00 11.3 11 Sudeste 24 Este 0 1020.7 -2 65
2020-01-09 02:00:00 8.6 10 Este 17 Este 0 1021.2 -1.3 81
2020-01-09 01:00:00 8.1 9 Este 11 Este 0 1021.9 -0.6 83
2020-01-09 00:00:00 8.7 7 Sudeste 11 Noroeste 0 1022.7 -0.2 78
2020-01-08 23:00:00 8.8 5 Oeste 18 Sudeste 0 1022.5 -- 79
2020-01-08 22:00:00 9 13 Sudeste 17 Sudeste 0 1022.5 -- 85
2020-01-08 21:00:00 8.5 11 Este -- -- -- 1022.9 -- 85
2020-01-08 20:00:00 -- -- -- -- -- -- -- -- --
2020-01-08 19:00:00 -- -- -- -- -- -- -- -- --
2020-01-08 18:00:00 -- -- -- -- -- -- -- -- --
2020-01-08 17:00:00 16.4 8 Oeste 15 Oeste 0 1023.8 -1 48
2020-01-08 16:00:00 18 0 Calma 5 Noroeste 0 1023.8 -1.9 47
2020-01-08 15:00:00 18.1 0 Calma 8 Este 0 1024.1 -2.5 49
2020-01-08 14:00:00 17 5 Este 11 Nordeste 0 1024.8 -2.5 50
2020-01-08 13:00:00 14.9 5 Este 15 Nordeste 0 1025.7 -1.6 69
2020-01-08 12:00:00 12.9 6 Este 13 Este 0 1026.6 -0.4 79
2020-01-08 11:00:00 9.5 8 Este 15 Este 0 1027.3 0.5 90
2020-01-08 10:00:00 6.6 11 Este 17 Este 0 1027.3 0.9 97
2020-01-08 09:00:00 4.8 8 Este 17 Este 0 1027 0.9 97
2020-01-08 08:00:00 5 9 Este 15 Este 0 1026.8 0.6 97
2020-01-08 07:00:00 5.3 8 Este -- -- 0 1026.4 -0.3 97
2020-01-08 06:00:00 5.6 7 Este 13 Este 0 1026.1 -0.4 97
2020-01-08 05:00:00 5.4 10 Este 13 Este 0 1026.2 -0.4 97
2020-01-08 04:00:00 6.1 5 Este 9 Este 0 1026.7 -0.3 97
2020-01-08 03:00:00 6.4 9 Este 11 Este 0 1026.5 -0.8 96
2020-01-08 02:00:00 6.6 9 Este 13 Este 0 1026.6 -1 97
2020-01-08 01:00:00 -- 9 Este 11 Este 0 1027 -0.6 --
2020-01-08 00:00:00 7 8 Este 13 Este 0 1027.3 -0.1 96
2020-01-07 23:00:00 7.4 7 Este 17 Este 0 1027.6 0.5 96
2020-01-07 22:00:00 7.6 6 Este 13 Este 0 1027.6 1 94
2020-01-07 21:00:00 8.8 7 Nordeste 13 Nordeste 0 1027.4 1.2 93
2020-01-07 20:00:00 9.6 3 Nordeste 5 Nordeste 0 1027.1 1.3 89
2020-01-07 19:00:00 11.6 5 Oeste 15 Oeste 0 1026.6 1 86
2020-01-07 18:00:00 13.4 11 Oeste 15 Sudoeste 0 1026.2 0.2 72
2020-01-07 17:00:00 17.6 0 Calma 5 Este 0 1025.8 -0.6 57
2020-01-07 16:00:00 17.2 5 Este 9 Sudeste 0 1025.6 -1.8 58
2020-01-07 15:00:00 16.9 4 Sudeste 11 Nordeste 0 1026 -2.3 58
2020-01-07 14:00:00 15.4 4 Sudeste 15 Sudeste 0 1026.4 -2.5 63
2020-01-07 13:00:00 13.4 12 Este 17 Sudeste 0 1027.4 -1.2 68
2020-01-07 12:00:00 10.7 9 Sudeste 15 Sudeste 0 1028.3 0.4 77
2020-01-07 11:00:00 8.2 13 Sudeste 18 Sudeste 0 1028.9 1.4 83
2020-01-07 10:00:00 6.8 10 Sudeste 18 Sudeste 0 1028.6 0.8 87
2020-01-07 09:00:00 5.1 8 Este 18 Sudeste 0 1027.9 0 91
2020-01-07 08:00:00 4.7 10 Este 15 Este 0 1027.5 -0.6 92
2020-01-07 07:00:00 4.7 10 Sudeste 15 Sudeste 0 1027.8 -0.6 94
2020-01-07 06:00:00 4 5 Este 9 Sudeste 0 1027.9 0 96
2020-01-07 05:00:00 4.3 5 Este 15 Este 0 1028.1 -0.2 96
2020-01-07 04:00:00 4.6 8 Este 11 Sudeste 0 1028.4 -0.6 94
2020-01-07 03:00:00 5.3 0 Calma 8 Norte 0 1027.9 -1.2 95
2020-01-07 02:00:00 5.5 4 Este 13 Este 0 1028.3 -0.3 96
2020-01-07 01:00:00 5.4 5 Este 11 Este 0 1029 0.6 97
2020-01-07 00:00:00 4.5 9 Este 13 Este 0 1029.1 0.9 97
2020-01-06 23:00:00 5.3 7 Este 9 Este 0 1028.6 0.3 96
2020-01-06 22:00:00 5.6 8 Este 13 Este 0 1028.4 1.1 96
2020-01-06 21:00:00 6.3 4 Este 17 Este 0 1028.2 2.3 94
2020-01-06 20:00:00 7.7 3 Nordeste 11 Nordeste 0 1028.3 2.7 92
2020-01-06 19:00:00 8.4 5 Sur 17 Nordeste 0 1027.3 2.9 88
2020-01-06 18:00:00 10.5 6 Sur 15 Noroeste 0 1025.9 2 83
2020-01-06 17:00:00 11.6 11 Noroeste 22 Noroeste 0 1025.6 1.9 78
2020-01-06 16:00:00 12.9 13 Noroeste 22 Oeste 0 1024.4 0 73
2020-01-06 15:00:00 13.6 12 Oeste 21 Noroeste 0 1023.9 -1.2 54
2020-01-06 14:00:00 13.4 6 Sudoeste 9 Oeste 0 1023.7 -2 50
2020-01-06 13:00:00 11.9 0 Calma 9 Sur 0 1024.4 -0.9 58
2020-01-06 12:00:00 8.6 5 Este 15 Este 0 1025.1 0.6 75
2020-01-06 11:00:00 4.8 4 Sudeste 8 Sudeste 0 1025.7 1.6 87
2020-01-06 10:00:00 2.1 4 Sudeste 11 Este 0 1025.3 2.1 97